createdAt,value
2023-03-08T00:01:18.760Z,41.80
2023-03-08T00:03:47.042Z,30.45
2023-03-08T00:06:15.965Z,35.45
2023-03-08T00:08:44.004Z,42.03
2023-03-08T00:11:13.280Z,39.22
2023-03-08T00:13:41.670Z,32.70
2023-03-08T00:16:11.401Z,43.47
2023-03-08T00:18:39.180Z,41.10
2023-03-08T00:21:11.662Z,39.60
2023-03-08T00:23:39.751Z,33.50
2023-03-08T00:26:07.145Z,37.35
2023-03-08T00:28:34.582Z,39.13
2023-03-08T00:31:05.962Z,35.47
2023-03-08T00:33:34.065Z,34.88
2023-03-08T00:36:04.882Z,32.15
2023-03-08T00:38:35.443Z,36.97
2023-03-08T00:41:03.726Z,35.13
2023-03-08T00:43:33.249Z,33.22
2023-03-08T00:46:04.630Z,30.30
2023-03-08T00:48:32.264Z,35.88
2023-03-08T00:50:59.657Z,36.70
2023-03-08T00:53:27.224Z,30.40
2023-03-08T00:55:57.729Z,35.75
2023-03-08T00:58:28.321Z,32.58
2023-03-08T01:00:55.992Z,39.03
2023-03-08T01:03:24.424Z,37.97
2023-03-08T01:05:53.971Z,36.13
2023-03-08T01:08:22.345Z,33.15
2023-03-08T01:10:53.939Z,38.65
2023-03-08T01:13:25.070Z,31.52
2023-03-08T01:15:52.526Z,27.70
2023-03-08T01:18:19.928Z,32.97
2023-03-08T01:20:59.006Z,31.25
2023-03-08T01:23:26.868Z,33.28
2023-03-08T01:25:57.127Z,35.67
2023-03-08T01:28:25.806Z,33.67
2023-03-08T01:30:53.131Z,34.45
2023-03-08T01:33:21.628Z,33.05
2023-03-08T01:35:50.510Z,27.30
2023-03-08T01:38:17.989Z,30.95
2023-03-08T01:40:45.244Z,31.48
2023-03-08T01:43:23.724Z,22.85
2023-03-08T01:45:54.667Z,25.85
2023-03-08T01:48:35.194Z,26.05
2023-03-08T01:51:08.403Z,28.88
2023-03-08T01:53:38.052Z,28.80
2023-03-08T01:56:09.397Z,30.02
2023-03-08T01:58:38.010Z,28.73
2023-03-08T02:01:05.842Z,26.42
2023-03-08T02:03:33.834Z,29.83
2023-03-08T02:06:04.340Z,27.23
2023-03-08T02:08:33.304Z,30.23
2023-03-08T02:11:02.140Z,25.83
2023-03-08T02:13:30.335Z,29.63
2023-03-08T02:16:00.355Z,25.95
2023-03-08T02:18:28.536Z,31.67
2023-03-08T02:20:56.066Z,28.30
2023-03-08T02:23:26.024Z,28.95
2023-03-08T02:25:56.098Z,30.40
2023-03-08T02:28:26.159Z,23.98
2023-03-08T02:30:55.352Z,26.35
2023-03-08T02:33:23.291Z,20.40
2023-03-08T02:35:51.000Z,29.65
2023-03-08T02:38:20.402Z,29.02
2023-03-08T02:40:51.664Z,23.58
2023-03-08T02:43:19.465Z,22.65
2023-03-08T02:45:47.111Z,23.73
2023-03-08T02:48:15.737Z,20.05
2023-03-08T02:50:43.249Z,26.80
2023-03-08T02:53:11.069Z,23.23
2023-03-08T02:55:39.985Z,28.45
2023-03-08T02:58:11.295Z,20.70
2023-03-08T03:00:40.779Z,21.35
2023-03-08T03:03:08.533Z,26.55
2023-03-08T03:05:40.307Z,27.10
2023-03-08T03:08:08.398Z,23.33
2023-03-08T03:13:05.886Z,25.92
2023-03-08T03:15:33.835Z,22.65
2023-03-08T03:18:01.606Z,25.70
2023-03-08T03:20:28.933Z,21.42
2023-03-08T03:22:56.456Z,25.75
2023-03-08T03:25:28.936Z,21.55
2023-03-08T03:27:57.461Z,20.02
2023-03-08T03:30:28.201Z,25.00
2023-03-08T03:32:56.159Z,22.10
2023-03-08T03:35:28.134Z,22.40
2023-03-08T03:37:55.899Z,25.20
2023-03-08T03:40:23.510Z,24.98
2023-03-08T03:42:56.433Z,22.88
2023-03-08T03:45:24.797Z,26.48
2023-03-08T03:47:52.251Z,23.63
2023-03-08T03:50:20.063Z,25.48
2023-03-08T03:52:54.425Z,24.48
2023-03-08T03:55:22.366Z,19.33
2023-03-08T03:57:51.141Z,22.95
2023-03-08T04:00:19.651Z,20.42
2023-03-08T04:02:55.028Z,24.02
2023-03-08T04:05:22.683Z,24.52
2023-03-08T04:07:53.039Z,23.10
2023-03-08T04:10:23.800Z,21.48
2023-03-08T04:12:53.262Z,21.13
2023-03-08T04:15:22.309Z,21.75
2023-03-08T04:17:52.861Z,24.58
2023-03-08T04:20:23.311Z,21.80
2023-03-08T04:22:55.844Z,22.20
2023-03-08T04:25:29.987Z,28.92
2023-03-08T04:28:00.484Z,25.63
2023-03-08T04:30:30.169Z,20.85
2023-03-08T04:32:59.845Z,25.42
2023-03-08T04:35:34.676Z,20.08
2023-03-08T04:38:03.947Z,20.60
2023-03-08T04:40:31.371Z,19.65
2023-03-08T04:43:03.367Z,19.45
2023-03-08T04:45:36.853Z,20.17
2023-03-08T04:48:10.061Z,24.67
2023-03-08T04:50:39.518Z,18.50
2023-03-08T04:53:09.041Z,20.70
2023-03-08T04:55:38.222Z,16.38
2023-03-08T04:58:06.278Z,15.77
2023-03-08T05:00:33.786Z,19.58
2023-03-08T05:03:01.597Z,14.65
2023-03-08T05:05:29.506Z,17.90
2023-03-08T05:07:59.886Z,21.17
2023-03-08T05:10:27.750Z,17.05
2023-03-08T05:12:55.955Z,18.30
2023-03-08T05:15:23.801Z,17.33
2023-03-08T05:17:51.686Z,16.45
2023-03-08T05:20:19.337Z,15.85
2023-03-08T05:22:57.893Z,15.73
2023-03-08T05:25:32.000Z,16.60
2023-03-08T05:28:01.026Z,15.85
2023-03-08T05:30:28.488Z,17.02
2023-03-08T05:32:56.273Z,16.85
2023-03-08T05:35:23.702Z,15.68
2023-03-08T05:37:51.754Z,13.75
2023-03-08T05:40:19.513Z,22.17
2023-03-08T05:42:47.535Z,14.70
2023-03-08T05:45:16.257Z,13.75
2023-03-08T05:47:43.908Z,12.63
2023-03-08T05:50:12.443Z,18.35
2023-03-08T05:52:42.842Z,14.48
2023-03-08T05:55:14.852Z,14.65
2023-03-08T05:57:43.500Z,14.05
2023-03-08T06:00:12.173Z,13.98
2023-03-08T06:02:42.219Z,13.57
2023-03-08T06:05:10.230Z,14.95
2023-03-08T06:07:38.830Z,14.85
2023-03-08T06:10:11.606Z,16.73
2023-03-08T06:12:40.031Z,16.17
2023-03-08T06:15:12.214Z,13.48
2023-03-08T06:17:41.386Z,15.88
2023-03-08T06:20:10.141Z,17.10
2023-03-08T06:22:40.948Z,22.58
2023-03-08T06:25:09.135Z,13.10
2023-03-08T06:27:37.631Z,15.35
2023-03-08T06:30:13.268Z,14.23
2023-03-08T06:32:42.852Z,19.27
2023-03-08T06:35:11.078Z,16.92
2023-03-08T06:37:45.054Z,13.85
2023-03-08T06:40:13.713Z,16.33
2023-03-08T06:42:42.166Z,19.20
2023-03-08T06:45:14.009Z,19.27
2023-03-08T06:47:41.585Z,16.42
2023-03-08T06:50:10.604Z,19.05
2023-03-08T06:52:41.465Z,18.60
2023-03-08T06:55:10.500Z,16.45
2023-03-08T06:57:38.027Z,19.40
2023-03-08T07:00:06.245Z,21.02
2023-03-08T07:02:33.517Z,25.65
2023-03-08T07:05:00.866Z,15.90
2023-03-08T07:07:28.236Z,19.90
2023-03-08T07:09:55.651Z,19.00
2023-03-08T07:12:22.891Z,24.52
2023-03-08T07:14:53.494Z,19.27
2023-03-08T07:17:20.811Z,20.25
2023-03-08T07:19:48.262Z,20.40
2023-03-08T07:22:15.665Z,15.85
2023-03-08T07:24:43.057Z,19.88
2023-03-08T07:27:10.366Z,16.38
2023-03-08T07:29:37.872Z,22.55
2023-03-08T07:32:05.618Z,25.27
2023-03-08T07:34:33.022Z,18.42
2023-03-08T07:37:00.413Z,19.23
2023-03-08T07:39:27.876Z,17.88
2023-03-08T07:41:55.237Z,13.43
2023-03-08T07:44:22.707Z,26.40
2023-03-08T07:46:50.128Z,18.20
2023-03-08T07:49:17.405Z,21.15
2023-03-08T07:51:44.892Z,21.10
2023-03-08T07:54:13.196Z,13.77
2023-03-08T07:56:40.630Z,18.67
2023-03-08T07:59:08.049Z,17.35
2023-03-08T08:01:35.679Z,14.10
2023-03-08T08:04:04.122Z,18.10
2023-03-08T08:06:31.460Z,15.30
2023-03-08T08:08:58.750Z,18.95
2023-03-08T08:11:26.130Z,14.05
2023-03-08T08:13:53.788Z,20.65
2023-03-08T08:16:21.426Z,15.48
2023-03-08T08:18:48.748Z,15.60
2023-03-08T08:21:17.256Z,15.45
2023-03-08T08:23:45.049Z,15.05
2023-03-08T08:26:16.726Z,12.20
2023-03-08T08:28:47.286Z,11.82
2023-03-08T08:31:18.307Z,18.00
2023-03-08T08:33:45.716Z,23.42
2023-03-08T08:36:16.656Z,16.55
2023-03-08T08:38:46.305Z,14.23
2023-03-08T08:41:16.247Z,14.13
2023-03-08T08:43:45.466Z,13.73
2023-03-08T08:46:13.826Z,9.25
2023-03-08T08:48:42.048Z,11.55
2023-03-08T08:51:12.857Z,12.00
2023-03-08T08:53:40.605Z,10.85
2023-03-08T08:56:23.801Z,10.25
2023-03-08T08:58:53.709Z,11.77
2023-03-08T09:01:23.706Z,11.20
2023-03-08T09:03:51.457Z,16.80
2023-03-08T09:06:20.907Z,14.18
2023-03-08T09:08:50.881Z,13.40
2023-03-08T09:11:18.334Z,17.52
2023-03-08T09:13:45.969Z,15.20
2023-03-08T09:16:16.216Z,17.80
2023-03-08T09:18:43.549Z,15.23
2023-03-08T09:21:11.797Z,13.25
2023-03-08T09:23:39.262Z,14.60
2023-03-08T09:26:06.847Z,19.77
2023-03-08T09:28:34.660Z,16.48
2023-03-08T09:31:12.004Z,23.25
2023-03-08T09:33:42.251Z,16.83
2023-03-08T09:36:10.301Z,16.98
2023-03-08T09:38:39.436Z,19.00
2023-03-08T09:41:21.952Z,18.92
2023-03-08T09:44:05.472Z,20.55
2023-03-08T09:46:40.920Z,17.73
2023-03-08T09:49:16.631Z,18.00
2023-03-08T09:51:47.929Z,17.90
2023-03-08T09:54:21.671Z,17.65
2023-03-08T09:56:51.454Z,16.13
2023-03-08T09:59:27.167Z,19.35
2023-03-08T10:01:57.748Z,15.55
2023-03-08T10:04:34.669Z,13.32
2023-03-08T10:07:15.622Z,23.90
2023-03-08T10:09:53.680Z,18.50
2023-03-08T10:12:32.431Z,19.85
2023-03-08T10:15:09.608Z,17.58
2023-03-08T10:17:46.792Z,14.27
2023-03-08T10:20:22.311Z,17.20
2023-03-08T10:22:58.270Z,13.25
2023-03-08T10:25:31.556Z,16.30
2023-03-08T10:28:02.288Z,17.80
2023-03-08T10:30:36.132Z,17.02
2023-03-08T10:35:38.833Z,13.40
2023-03-08T10:38:16.621Z,13.15
2023-03-08T10:40:44.226Z,14.70
2023-03-08T10:43:28.227Z,12.45
2023-03-08T10:48:24.659Z,14.30
2023-03-08T10:50:55.333Z,13.73
2023-03-08T10:53:24.438Z,12.15
2023-03-08T10:55:53.090Z,16.88
2023-03-08T10:58:27.738Z,14.23
2023-03-08T11:00:57.157Z,11.45
2023-03-08T11:03:26.056Z,14.30
2023-03-08T11:05:56.596Z,15.80
2023-03-08T11:08:27.542Z,16.52
2023-03-08T11:10:58.853Z,17.10
2023-03-08T11:13:31.867Z,15.05
2023-03-08T11:16:09.350Z,13.80
2023-03-08T11:19:03.857Z,15.85
2023-03-08T11:21:32.236Z,12.05
2023-03-08T11:24:18.612Z,18.67
2023-03-08T11:26:56.260Z,16.02
2023-03-08T11:29:37.146Z,13.88
2023-03-08T11:32:22.271Z,12.90
2023-03-08T11:34:57.442Z,16.45
2023-03-08T11:37:38.984Z,12.23
2023-03-08T11:40:14.786Z,14.48
2023-03-08T11:42:54.416Z,13.82
2023-03-08T11:45:29.967Z,17.83
2023-03-08T11:48:12.521Z,16.85
2023-03-08T11:50:49.803Z,16.42
2023-03-08T11:53:24.354Z,17.25
2023-03-08T11:55:55.414Z,15.52
2023-03-08T11:58:32.733Z,14.90
2023-03-08T12:01:02.947Z,14.30
2023-03-08T12:03:35.662Z,14.65
2023-03-08T12:06:19.407Z,17.42
2023-03-08T12:08:59.756Z,23.75
2023-03-08T12:11:32.252Z,23.10
2023-03-08T12:14:11.001Z,18.92
2023-03-08T12:16:46.519Z,14.80
2023-03-08T12:19:35.800Z,21.65
2023-03-08T12:22:14.871Z,25.88
2023-03-08T12:25:04.672Z,23.77
2023-03-08T12:27:35.597Z,20.35
2023-03-08T12:30:14.739Z,18.50
2023-03-08T12:32:44.216Z,18.85
2023-03-08T12:35:25.448Z,14.00
2023-03-08T12:37:56.891Z,19.85
2023-03-08T12:40:29.029Z,19.80
2023-03-08T12:42:59.687Z,24.00
2023-03-08T12:45:31.290Z,20.40
2023-03-08T12:48:08.889Z,20.80
2023-03-08T12:50:44.566Z,24.35
2023-03-08T12:53:15.347Z,15.43
2023-03-08T12:55:45.598Z,20.23
2023-03-08T12:58:17.723Z,24.30
2023-03-08T13:00:45.349Z,20.98
2023-03-08T13:03:36.327Z,23.60
2023-03-08T13:06:31.138Z,22.40
2023-03-08T13:09:03.382Z,23.23
2023-03-08T13:11:41.558Z,26.48
2023-03-08T13:14:12.130Z,20.65
2023-03-08T13:16:40.391Z,19.73
2023-03-08T13:19:29.247Z,16.70
2023-03-08T13:22:15.549Z,22.10
2023-03-08T13:24:50.217Z,19.70
2023-03-08T13:27:39.065Z,23.73
2023-03-08T13:30:19.507Z,20.55
2023-03-08T13:32:49.482Z,25.55
2023-03-08T13:35:18.319Z,21.85
2023-03-08T13:37:54.294Z,26.50
2023-03-08T13:40:23.269Z,27.85
2023-03-08T13:42:54.567Z,21.63
2023-03-08T13:45:22.688Z,28.23
2023-03-08T13:47:51.071Z,28.45
2023-03-08T13:50:24.922Z,28.85
2023-03-08T13:52:52.777Z,26.40
2023-03-08T13:55:25.010Z,27.42
2023-03-08T13:57:54.461Z,26.15
2023-03-08T14:00:27.467Z,23.35
2023-03-08T14:02:55.783Z,23.70
2023-03-08T14:05:27.787Z,20.33
2023-03-08T14:08:05.114Z,29.35
2023-03-08T14:10:39.145Z,33.97
2023-03-08T14:13:15.133Z,32.13
2023-03-08T14:15:51.138Z,29.60
2023-03-08T14:18:22.458Z,30.52
2023-03-08T14:20:53.243Z,25.35
2023-03-08T14:23:27.328Z,29.42
2023-03-08T14:25:57.448Z,31.33
2023-03-08T14:28:36.001Z,39.95
2023-03-08T14:31:03.762Z,32.33
2023-03-08T14:33:42.126Z,24.05
2023-03-08T14:36:10.576Z,30.75
2023-03-08T14:38:37.928Z,27.67
2023-03-08T14:41:06.774Z,33.22
2023-03-08T14:43:34.148Z,33.38
2023-03-08T14:46:05.320Z,31.05
2023-03-08T14:48:35.825Z,30.63
2023-03-08T14:51:06.923Z,27.70
2023-03-08T14:53:38.609Z,30.08
2023-03-08T14:56:09.481Z,30.92
2023-03-08T14:58:40.782Z,26.25
2023-03-08T15:01:08.339Z,39.70
2023-03-08T15:03:35.924Z,33.00
2023-03-08T15:06:12.847Z,32.97
2023-03-08T15:08:40.361Z,37.08
2023-03-08T15:11:08.196Z,32.70
2023-03-08T15:13:35.646Z,34.33
2023-03-08T15:16:02.990Z,33.97
2023-03-08T15:18:30.389Z,41.08
2023-03-08T15:20:58.097Z,34.50
2023-03-08T15:23:28.784Z,33.70
2023-03-08T15:25:57.339Z,34.42
2023-03-08T15:28:25.125Z,31.70
2023-03-08T15:30:55.011Z,42.75
2023-03-08T15:33:23.393Z,35.97
2023-03-08T15:35:52.036Z,31.38
2023-03-08T15:38:21.573Z,30.88
2023-03-08T15:40:48.908Z,22.73
2023-03-08T15:43:16.433Z,38.15
2023-03-08T15:45:43.944Z,24.33
2023-03-08T15:48:15.579Z,25.95
2023-03-08T15:50:44.375Z,24.70
2023-03-08T15:53:18.564Z,21.60
2023-03-08T15:55:53.643Z,25.67
2023-03-08T15:58:20.903Z,20.95
2023-03-08T16:00:49.171Z,21.77
2023-03-08T16:03:26.211Z,21.30
2023-03-08T16:05:53.918Z,20.73
2023-03-08T16:08:25.200Z,16.58
2023-03-08T16:10:52.840Z,16.27
2023-03-08T16:13:22.074Z,18.65
2023-03-08T16:15:49.748Z,13.00
2023-03-08T16:18:17.219Z,15.25
2023-03-08T16:20:46.398Z,14.30
2023-03-08T16:23:13.855Z,13.13
2023-03-08T16:25:43.729Z,13.65
2023-03-08T16:28:11.306Z,15.45
2023-03-08T16:30:41.210Z,10.13
2023-03-08T16:33:08.602Z,10.65
2023-03-08T16:35:36.114Z,15.43
2023-03-08T16:38:03.494Z,16.38
2023-03-08T16:40:33.156Z,12.43
2023-03-08T16:43:00.495Z,14.25
2023-03-08T16:45:27.901Z,13.70
2023-03-08T16:47:55.619Z,14.98
2023-03-08T16:50:24.616Z,11.25
2023-03-08T16:52:55.242Z,15.05
2023-03-08T16:55:23.046Z,17.90
2023-03-08T16:57:50.480Z,16.05
2023-03-08T17:00:18.319Z,16.00
2023-03-08T17:02:45.722Z,16.02
2023-03-08T17:05:13.268Z,15.68
2023-03-08T17:07:40.587Z,14.40
2023-03-08T17:10:09.163Z,16.35
2023-03-08T17:12:36.616Z,15.30
2023-03-08T17:15:04.907Z,16.50
2023-03-08T17:17:32.194Z,17.55
2023-03-08T17:20:01.078Z,12.75
2023-03-08T17:22:28.434Z,12.90
2023-03-08T17:24:55.953Z,13.93
2023-03-08T17:27:24.349Z,15.82
2023-03-08T17:29:51.766Z,12.32
2023-03-08T17:32:19.155Z,19.23
2023-03-08T17:34:46.652Z,12.82
2023-03-08T17:37:15.931Z,12.65
2023-03-08T17:39:43.377Z,12.48
2023-03-08T17:42:10.712Z,14.52
2023-03-08T17:44:38.148Z,14.75
2023-03-08T17:47:05.668Z,12.23
2023-03-08T17:49:33.554Z,16.15
2023-03-08T17:52:00.867Z,12.52
2023-03-08T17:54:28.223Z,14.27
2023-03-08T17:56:55.500Z,14.13
2023-03-08T17:59:23.032Z,14.88
2023-03-08T18:01:50.420Z,11.27
2023-03-08T18:04:19.146Z,11.75
2023-03-08T18:06:46.473Z,11.73
2023-03-08T18:09:16.321Z,14.82
2023-03-08T18:11:43.880Z,15.43
2023-03-08T18:14:14.328Z,13.20
2023-03-08T18:16:44.750Z,13.38
2023-03-08T18:19:12.438Z,13.88
2023-03-08T18:21:41.501Z,13.60
2023-03-08T18:24:12.463Z,13.35
2023-03-08T18:26:39.830Z,13.07
2023-03-08T18:29:07.831Z,15.13
2023-03-08T18:31:37.477Z,15.57
2023-03-08T18:34:06.032Z,10.90
2023-03-08T18:36:34.016Z,15.85
2023-03-08T18:39:04.608Z,15.35
2023-03-08T18:41:33.750Z,16.92
2023-03-08T18:44:01.767Z,13.27
2023-03-08T18:46:31.357Z,15.13
2023-03-08T18:49:01.656Z,17.98
2023-03-08T18:51:30.357Z,20.17
2023-03-08T18:53:59.393Z,18.75
2023-03-08T18:56:28.023Z,16.75
2023-03-08T18:58:58.137Z,16.85
2023-03-08T19:01:26.096Z,20.13
2023-03-08T19:03:53.534Z,17.08
2023-03-08T19:06:21.137Z,17.05
2023-03-08T19:08:48.466Z,16.25
2023-03-08T19:11:19.970Z,18.35
2023-03-08T19:13:48.701Z,20.02
2023-03-08T19:16:19.773Z,26.00
2023-03-08T19:18:48.396Z,28.02
2023-03-08T19:21:18.594Z,22.70
2023-03-08T19:23:46.339Z,20.73
2023-03-08T19:26:19.037Z,30.88
2023-03-08T19:28:46.459Z,27.10
2023-03-08T19:31:17.579Z,31.17
2023-03-08T19:33:50.054Z,20.00
2023-03-08T19:36:17.447Z,30.15
2023-03-08T19:38:44.869Z,27.85
2023-03-08T19:41:13.812Z,23.38
2023-03-08T19:43:41.180Z,25.52
2023-03-08T19:46:09.732Z,25.40
2023-03-08T19:48:37.200Z,35.92
2023-03-08T19:51:04.951Z,30.48
2023-03-08T19:53:32.339Z,27.83
2023-03-08T19:55:59.832Z,33.55
2023-03-08T19:58:27.181Z,26.92
2023-03-08T20:01:03.488Z,32.45
2023-03-08T20:03:31.314Z,33.25
2023-03-08T20:05:58.933Z,37.58
2023-03-08T20:08:26.756Z,38.25
2023-03-08T20:10:54.165Z,41.63
2023-03-08T20:13:21.702Z,40.75
2023-03-08T20:15:49.241Z,36.67
2023-03-08T20:18:16.687Z,35.38
2023-03-08T20:20:45.100Z,33.92
2023-03-08T20:23:12.556Z,33.63
2023-03-08T20:25:43.035Z,47.42
2023-03-08T20:28:11.551Z,46.17
2023-03-08T20:30:39.782Z,40.50
2023-03-08T20:33:07.775Z,40.28
2023-03-08T20:35:35.368Z,45.35
2023-03-08T20:38:02.968Z,49.95
2023-03-08T20:40:30.599Z,43.15
2023-03-08T20:42:58.553Z,51.88
2023-03-08T20:45:27.373Z,50.28
2023-03-08T20:47:57.470Z,49.38
2023-03-08T20:50:27.024Z,47.97
2023-03-08T20:52:54.788Z,55.25
2023-03-08T20:55:22.174Z,52.90
2023-03-08T20:57:53.044Z,47.50
2023-03-08T21:00:20.794Z,45.45
2023-03-08T21:02:48.099Z,43.30
2023-03-08T21:05:15.605Z,49.97
2023-03-08T21:07:43.108Z,55.92
2023-03-08T21:10:11.196Z,57.38
2023-03-08T21:12:39.195Z,60.60
2023-03-08T21:15:07.348Z,53.67
2023-03-08T21:17:36.811Z,56.00
2023-03-08T21:20:05.651Z,51.33
2023-03-08T21:22:33.179Z,59.90
2023-03-08T21:25:00.506Z,57.55
2023-03-08T21:27:27.857Z,51.63
2023-03-08T21:29:55.868Z,57.17
2023-03-08T21:32:23.334Z,63.20
2023-03-08T21:34:50.763Z,57.20
2023-03-08T21:37:19.272Z,52.03
2023-03-08T21:39:46.596Z,56.88
2023-03-08T21:42:15.136Z,58.10
2023-03-08T21:44:42.578Z,77.53
2023-03-08T21:47:09.976Z,62.03
2023-03-08T21:49:37.376Z,58.20
2023-03-08T21:52:05.251Z,54.58
2023-03-08T21:54:32.838Z,53.97
2023-03-08T21:57:00.334Z,57.72
2023-03-08T21:59:29.921Z,59.80
2023-03-08T22:01:58.985Z,53.28
2023-03-08T22:04:27.375Z,54.17
2023-03-08T22:06:56.025Z,61.95
2023-03-08T22:09:26.856Z,60.65
2023-03-08T22:11:54.545Z,56.35
2023-03-08T22:14:22.000Z,61.08
2023-03-08T22:16:49.279Z,65.03
2023-03-08T22:19:18.125Z,64.47
2023-03-08T22:21:45.685Z,63.53
2023-03-08T22:24:13.064Z,69.75
2023-03-08T22:26:40.401Z,59.28
2023-03-08T22:29:07.920Z,59.67
2023-03-08T22:31:35.554Z,51.03
2023-03-08T22:34:03.189Z,54.25
2023-03-08T22:36:30.566Z,53.25
2023-03-08T22:38:57.994Z,63.85
2023-03-08T22:41:27.815Z,62.45
2023-03-08T22:43:55.548Z,60.60
2023-03-08T22:46:25.735Z,62.05
2023-03-08T22:48:54.628Z,58.17
2023-03-08T22:51:22.837Z,60.55
2023-03-08T22:53:50.607Z,62.97
2023-03-08T22:56:22.176Z,53.90
2023-03-08T22:58:50.608Z,51.13
2023-03-08T23:01:21.022Z,57.00
2023-03-08T23:03:49.968Z,71.80
2023-03-08T23:06:18.836Z,62.10
2023-03-08T23:08:47.541Z,67.30
2023-03-08T23:11:15.425Z,67.88
2023-03-08T23:13:43.188Z,72.40
2023-03-08T23:16:13.861Z,59.95
2023-03-08T23:18:42.418Z,63.83
2023-03-08T23:21:13.468Z,60.65
2023-03-08T23:23:40.995Z,58.88
2023-03-08T23:26:12.080Z,65.18
2023-03-08T23:28:39.669Z,56.92
2023-03-08T23:31:09.668Z,76.15
2023-03-08T23:33:37.179Z,66.75
2023-03-08T23:36:05.016Z,61.75
2023-03-08T23:38:32.490Z,70.75
2023-03-08T23:41:03.219Z,79.22
2023-03-08T23:43:30.772Z,71.28
2023-03-08T23:45:58.115Z,72.00
2023-03-08T23:48:25.541Z,67.93
2023-03-08T23:50:52.969Z,72.28
2023-03-08T23:53:20.640Z,78.30
2023-03-08T23:55:47.920Z,78.68
2023-03-08T23:58:15.392Z,98.15
